Time;durP1;ratioP1;P1;durP2;ratioP2;P2;SDS_P1;SDS_P2;PMS_P1;PMS_P2;Temp;Humidity;BMP_temperature;BMP_pressure;BME280_temperature;BME280_humidity;BME280_pressure;Samples;Min_cycle;Max_cycle;Signal;HPM_P1;HPM_P2
2021/04/22 00:02:13;;;;;;;51.50;25.88;;;;;;;8.88;63.59;98169.84;5051438;28;20036;-78
2021/04/22 00:04:39;;;;;;;51.92;26.27;;;;;;;8.85;64.52;98173.16;5052138;28;20025;-78
2021/04/22 00:07:05;;;;;;;60.20;29.13;;;;;;;8.84;64.05;98165.25;5050868;28;20371;-78
2021/04/22 00:09:30;;;;;;;60.75;30.10;;;;;;;8.86;64.64;98165.78;5052012;28;20079;-79
2021/04/22 00:11:56;;;;;;;55.40;29.83;;;;;;;8.83;64.39;98156.22;5050766;28;20104;-77
2021/04/22 00:14:21;;;;;;;60.13;30.20;;;;;;;8.84;64.85;98162.53;5050644;28;20048;-77
2021/04/22 00:16:47;;;;;;;62.70;31.58;;;;;;;8.81;64.63;98163.09;5050690;28;20033;-78
2021/04/22 00:19:12;;;;;;;60.72;31.00;;;;;;;8.79;64.89;98166.09;5054289;28;20029;-78
2021/04/22 00:21:38;;;;;;;65.95;32.00;;;;;;;8.77;64.87;98162.84;5050912;28;20476;-78
2021/04/22 00:24:03;;;;;;;69.93;32.53;;;;;;;8.72;65.43;98166.47;5053332;28;20397;-78
2021/04/22 00:26:29;;;;;;;76.57;37.95;;;;;;;8.71;65.35;98164.84;5052597;28;20102;-78
2021/04/22 00:28:55;;;;;;;138.68;51.78;;;;;;;8.68;65.48;98162.69;5053454;28;20083;-79
2021/04/22 00:31:20;;;;;;;166.80;55.35;;;;;;;8.64;65.67;98159.72;5050691;28;20032;-79
2021/04/22 00:33:46;;;;;;;91.13;39.20;;;;;;;8.61;65.66;98160.31;5049333;28;20028;-78
2021/04/22 00:36:13;;;;;;;79.22;36.42;;;;;;;8.56;65.81;98160.38;5053043;28;20082;-78
2021/04/22 00:38:38;;;;;;;70.63;33.63;;;;;;;8.53;66.30;98171.09;5051371;28;20036;-78
2021/04/22 00:41:03;;;;;;;76.70;34.80;;;;;;;8.46;66.45;98169.47;5050084;28;20389;-77
2021/04/22 00:43:29;;;;;;;79.43;36.70;;;;;;;8.44;66.42;98168.94;5054437;28;20385;-79
2021/04/22 00:45:54;;;;;;;77.28;37.63;;;;;;;8.43;66.28;98169.22;5054270;28;20094;-79
2021/04/22 00:48:25;;;;;;;78.93;37.85;;;;;;;8.41;66.45;98165.97;5051851;28;20017;-78
2021/04/22 00:50:52;;;;;;;76.90;37.15;;;;;;;8.41;66.41;98165.97;5056105;28;20028;-79
2021/04/22 00:53:18;;;;;;;83.18;37.83;;;;;;;8.40;66.63;98154.22;5054540;28;20082;-78
2021/04/22 00:55:44;;;;;;;74.15;36.47;;;;;;;8.39;66.60;98162.69;5053132;28;20082;-78
2021/04/22 00:58:10;;;;;;;70.07;33.25;;;;;;;8.33;66.89;98151.00;5055299;28;20033;-79
2021/04/22 01:00:38;;;;;;;71.35;32.35;;;;;;;8.31;66.98;98148.59;5055530;28;20119;-78
2021/04/22 01:03:05;;;;;;;65.07;30.67;;;;;;;8.27;66.46;98153.00;5055730;28;20017;-78
2021/04/22 01:05:35;;;;;;;69.90;33.55;;;;;;;8.22;66.96;98146.75;5053993;28;20086;-77
2021/04/22 01:08:01;;;;;;;72.05;35.28;;;;;;;8.17;66.68;98147.63;5061403;28;20046;-76
2021/04/22 01:10:27;;;;;;;68.70;34.22;;;;;;;8.09;66.92;98149.06;5075278;28;20103;-76
2021/04/22 01:12:53;;;;;;;73.97;36.13;;;;;;;8.07;66.71;98151.28;5064026;28;20017;-77
2021/04/22 01:15:21;;;;;;;76.95;35.97;;;;;;;8.01;66.97;98149.69;5065533;28;20045;-77
2021/04/22 01:17:47;;;;;;;69.47;34.30;;;;;;;7.95;67.18;98153.56;5055524;28;20052;-76
2021/04/22 01:20:14;;;;;;;68.13;35.47;;;;;;;7.89;66.79;98155.53;5053575;28;20064;-76
2021/04/22 01:22:40;;;;;;;71.75;35.60;;;;;;;7.86;66.98;98167.81;5055984;28;20070;-76
2021/04/22 01:25:08;;;;;;;70.70;33.47;;;;;;;7.81;67.27;98158.88;5054049;28;20024;-77
2021/04/22 01:27:34;;;;;;;71.97;36.28;;;;;;;7.77;67.51;98157.81;5055562;28;20025;-76
2021/04/22 01:29:59;;;;;;;73.10;34.90;;;;;;;7.71;67.88;98163.31;5057130;28;20031;-77
2021/04/22 01:32:25;;;;;;;76.05;35.22;;;;;;;7.66;67.81;98155.16;5053479;28;20545;-76
2021/04/22 01:34:50;;;;;;;84.10;37.05;;;;;;;7.64;67.77;98154.59;5053658;28;20082;-76
2021/04/22 01:37:16;;;;;;;70.50;34.60;;;;;;;7.59;67.91;98168.28;5053820;28;20124;-76
2021/04/22 01:39:41;;;;;;;75.72;36.83;;;;;;;7.56;67.64;98163.41;5053151;28;20025;-76
2021/04/22 01:42:07;;;;;;;105.40;45.15;;;;;;;7.50;67.59;98165.34;5053240;28;20028;-76
2021/04/22 01:44:32;;;;;;;90.50;38.70;;;;;;;7.48;67.68;98166.75;5053523;28;20033;-76
2021/04/22 01:46:58;;;;;;;95.47;39.38;;;;;;;7.45;67.96;98165.38;5053261;28;20074;-76
2021/04/22 01:49:23;;;;;;;76.53;34.05;;;;;;;7.41;67.75;98167.03;5051796;28;20397;-77
2021/04/22 01:51:48;;;;;;;66.88;31.05;;;;;;;7.38;67.94;98160.25;5053153;28;20108;-77
2021/04/22 01:54:14;;;;;;;70.85;32.42;;;;;;;7.39;67.87;98158.31;5049954;28;20124;-76
2021/04/22 01:56:39;;;;;;;61.85;29.88;;;;;;;7.37;68.00;98155.91;5054412;28;20036;-76
2021/04/22 01:59:04;;;;;;;61.05;29.23;;;;;;;7.37;68.29;98165.97;5053890;28;20039;-76
2021/04/22 02:01:30;;;;;;;63.17;30.25;;;;;;;7.35;68.22;98165.44;5057098;28;20032;-76
2021/04/22 02:03:55;;;;;;;78.38;34.42;;;;;;;7.31;67.93;98159.75;5053740;28;20064;-76
2021/04/22 02:06:20;;;;;;;68.53;32.22;;;;;;;7.26;68.13;98159.78;5055448;28;20453;-76
2021/04/22 02:08:46;;;;;;;66.03;29.98;;;;;;;7.23;68.36;98155.72;5054145;28;20078;-76
2021/04/22 02:11:11;;;;;;;61.83;28.98;;;;;;;7.18;68.06;98150.28;5055135;28;20025;-76
2021/04/22 02:13:37;;;;;;;61.40;29.48;;;;;;;7.14;68.56;98154.66;5054865;28;20036;-76
2021/04/22 02:16:02;;;;;;;60.60;30.60;;;;;;;7.10;68.66;98145.41;5055189;28;20481;-77
2021/04/22 02:18:28;;;;;;;55.90;28.63;;;;;;;7.08;68.95;98142.97;5052613;28;20032;-76
2021/04/22 02:20:54;;;;;;;47.38;25.15;;;;;;;7.06;69.03;98153.34;5052481;28;20024;-77
2021/04/22 02:23:22;;;;;;;53.92;27.67;;;;;;;7.04;68.78;98144.63;5053593;28;20493;-76
2021/04/22 02:25:48;;;;;;;51.00;27.27;;;;;;;7.03;69.15;98147.63;5052632;28;20028;-76
2021/04/22 02:28:13;;;;;;;55.85;28.17;;;;;;;7.02;69.19;98140.53;5052633;28;20033;-77
2021/04/22 02:30:42;;;;;;;50.28;26.33;;;;;;;7.01;69.12;98139.75;5052733;28;20025;-76
2021/04/22 02:33:09;;;;;;;74.13;34.28;;;;;;;7.01;68.87;98145.19;5052472;28;20041;-76
2021/04/22 02:35:41;;;;;;;52.75;27.35;;;;;;;7.00;69.25;98147.09;5052751;28;20033;-77
2021/04/22 02:38:09;;;;;;;51.47;27.15;;;;;;;7.00;68.93;98143.56;5052857;28;20157;-76
2021/04/22 02:40:36;;;;;;;49.08;27.05;;;;;;;7.00;69.31;98146.28;5052457;28;20017;-77
2021/04/22 02:43:07;;;;;;;50.13;26.27;;;;;;;7.01;69.08;98142.47;5053914;28;20028;-76
2021/04/22 02:45:37;;;;;;;44.20;24.00;;;;;;;7.00;69.67;98136.19;5051254;28;20470;-77
2021/04/22 02:48:05;;;;;;;46.03;26.00;;;;;;;7.03;69.33;98145.72;5051111;28;20067;-76
2021/04/22 02:50:33;;;;;;;51.60;30.85;;;;;;;7.03;69.50;98143.00;5050867;28;20428;-77
2021/04/22 02:52:58;;;;;;;48.47;26.75;;;;;;;7.02;69.15;98146.00;5052153;28;20032;-76
2021/04/22 02:55:24;;;;;;;65.05;30.00;;;;;;;7.01;69.28;98158.81;5052775;28;20030;-75
2021/04/22 02:57:49;;;;;;;55.05;27.50;;;;;;;6.98;69.21;98182.00;5052007;28;20032;-74
2021/04/22 03:00:18;;;;;;;47.17;24.15;;;;;;;6.95;69.58;98173.56;5054162;28;20036;-74
2021/04/22 03:02:43;;;;;;;45.67;23.15;;;;;;;6.93;69.53;98171.13;5053144;28;20108;-75
2021/04/22 03:05:10;;;;;;;37.78;20.95;;;;;;;6.95;69.76;98171.66;5053253;28;20381;-74
2021/04/22 03:07:35;;;;;;;37.55;19.58;;;;;;;7.01;69.51;98183.38;5050717;28;20048;-77
2021/04/22 03:10:00;;;;;;;38.28;19.95;;;;;;;7.07;69.51;98170.50;5050721;28;20029;-77
2021/04/22 03:12:26;;;;;;;37.17;21.02;;;;;;;7.07;69.38;98171.34;5051995;28;20031;-78
2021/04/22 03:14:52;;;;;;;44.72;22.67;;;;;;;7.10;69.31;98175.41;5053490;28;20044;-77
2021/04/22 03:17:18;;;;;;;47.63;23.58;;;;;;;7.08;69.26;98181.16;5054786;28;20033;-78
2021/04/22 03:19:43;;;;;;;46.25;23.55;;;;;;;7.06;69.14;98183.34;5051813;28;20446;-78
2021/04/22 03:22:08;;;;;;;40.40;20.95;;;;;;;7.00;69.19;98168.91;5051406;28;20032;-74
2021/04/22 03:24:34;;;;;;;36.33;19.95;;;;;;;6.99;69.12;98177.38;5053030;28;20436;-75
2021/04/22 03:26:59;;;;;;;39.67;20.20;;;;;;;6.93;69.32;98178.50;5051319;28;20045;-74
2021/04/22 03:29:25;;;;;;;38.42;20.42;;;;;;;6.92;68.90;98182.31;5052673;28;20029;-74
2021/04/22 03:31:50;;;;;;;36.95;19.75;;;;;;;6.90;69.05;98193.50;5051482;28;20395;-77
2021/04/22 03:34:16;;;;;;;31.02;18.35;;;;;;;6.83;68.96;98195.72;5052397;28;20052;-75
2021/04/22 03:36:41;;;;;;;38.85;19.95;;;;;;;6.79;69.35;98197.34;5053946;28;20025;-77
2021/04/22 03:39:07;;;;;;;36.05;19.73;;;;;;;6.74;68.82;98197.38;5051319;28;20029;-75
2021/04/22 03:41:32;;;;;;;35.67;18.08;;;;;;;6.73;68.95;98206.63;5048545;28;20074;-75
2021/04/22 03:43:58;;;;;;;31.23;18.05;;;;;;;6.70;68.90;98206.09;5051670;28;20025;-75
2021/04/22 03:46:24;;;;;;;31.70;18.70;;;;;;;6.69;69.37;98206.38;5066408;28;20035;-78
2021/04/22 03:48:49;;;;;;;28.33;16.95;;;;;;;6.69;68.97;98211.84;5072536;28;20036;-74
2021/04/22 03:51:15;;;;;;;28.88;16.88;;;;;;;6.67;69.15;98209.38;5072136;28;20067;-75
2021/04/22 03:53:40;;;;;;;28.88;16.08;;;;;;;6.68;69.20;98212.94;5070774;28;20036;-75
2021/04/22 03:56:06;;;;;;;32.10;16.80;;;;;;;6.66;68.61;98213.19;5057570;28;20036;-75
2021/04/22 03:58:31;;;;;;;26.75;15.38;;;;;;;6.67;68.64;98220.28;5067168;28;20036;-77
2021/04/22 04:00:56;;;;;;;29.13;17.17;;;;;;;6.62;68.49;98222.22;5067094;28;20488;-78
2021/04/22 04:03:22;;;;;;;27.60;15.88;;;;;;;6.61;68.78;98226.03;5069209;28;20032;-77
2021/04/22 04:05:47;;;;;;;26.38;14.90;;;;;;;6.61;68.99;98221.38;5052381;28;20051;-74
2021/04/22 04:08:15;;;;;;;25.38;15.20;;;;;;;6.58;68.42;98216.47;5052024;28;20082;-75
2021/04/22 04:10:40;;;;;;;27.73;15.65;;;;;;;6.55;68.24;98217.03;5052315;28;20029;-75
2021/04/22 04:13:05;;;;;;;26.98;16.42;;;;;;;6.52;68.55;98233.94;5060136;28;20355;-75
2021/04/22 04:15:31;;;;;;;25.17;14.75;;;;;;;6.51;68.62;98233.13;5060392;28;20405;-76
2021/04/22 04:17:56;;;;;;;27.65;16.58;;;;;;;6.46;68.14;98241.28;5053822;28;20029;-76
2021/04/22 04:20:21;;;;;;;29.67;16.35;;;;;;;6.45;68.88;98238.84;5056238;28;20024;-75
2021/04/22 04:22:47;;;;;;;29.48;16.05;;;;;;;6.41;68.63;98249.47;5056051;28;20035;-76
2021/04/22 04:25:13;;;;;;;33.60;17.38;;;;;;;6.40;68.49;98250.56;5055949;28;20104;-76
2021/04/22 04:27:39;;;;;;;29.33;15.93;;;;;;;6.44;68.88;98251.66;5059713;28;20481;-75
2021/04/22 04:30:08;;;;;;;31.05;15.48;;;;;;;6.46;68.96;98249.47;5074260;28;20111;-75
2021/04/22 04:32:33;;;;;;;31.02;17.80;;;;;;;6.48;68.59;98260.91;5074139;28;20040;-75
2021/04/22 04:34:59;;;;;;;38.00;18.13;;;;;;;6.52;68.65;98262.00;5075681;28;20020;-75
2021/04/22 04:37:24;;;;;;;32.33;18.08;;;;;;;6.52;68.02;98256.56;5075812;28;20157;-75
2021/04/22 04:39:50;;;;;;;48.22;21.17;;;;;;;6.58;68.81;98265.53;5071023;28;20390;-76
2021/04/22 04:42:15;;;;;;;82.53;27.02;;;;;;;6.61;68.67;98269.63;5069839;28;20036;-75
2021/04/22 04:44:41;;;;;;;105.70;30.38;;;;;;;6.59;68.39;98269.09;5075603;28;20373;-75
2021/04/22 04:47:06;;;;;;;63.03;23.45;;;;;;;6.59;68.86;98271.81;5062169;28;20095;-75
2021/04/22 04:49:31;;;;;;;59.63;21.70;;;;;;;6.62;69.01;98277.50;5054312;28;20052;-76
2021/04/22 04:51:57;;;;;;;49.85;21.00;;;;;;;6.65;68.76;98284.34;5067045;28;20072;-75
2021/04/22 04:54:22;;;;;;;119.40;33.30;;;;;;;6.67;68.57;98285.69;5075155;28;20483;-75
2021/04/22 04:56:48;;;;;;;92.78;31.65;;;;;;;6.74;68.76;98287.31;5073528;28;20032;-74
2021/04/22 04:59:13;;;;;;;86.60;28.35;;;;;;;6.78;68.82;98285.66;5060209;28;20033;-75
2021/04/22 05:01:39;;;;;;;87.13;27.95;;;;;;;6.80;68.63;98295.19;5064783;28;20064;-75
2021/04/22 05:04:04;;;;;;;95.82;30.65;;;;;;;6.83;68.63;98293.84;5065381;28;20051;-76
2021/04/22 05:06:30;;;;;;;87.97;30.10;;;;;;;6.89;69.11;98298.19;5068886;28;20106;-75
2021/04/22 05:08:55;;;;;;;99.82;31.73;;;;;;;6.97;68.51;98296.81;5055662;28;20620;-75
2021/04/22 05:11:20;;;;;;;77.68;26.65;;;;;;;7.05;68.40;98298.13;5048701;28;20110;-76
2021/04/22 05:13:46;;;;;;;71.22;23.92;;;;;;;7.13;68.85;98305.75;5054866;28;20116;-76
2021/04/22 05:16:12;;;;;;;54.42;20.63;;;;;;;7.22;68.51;98312.28;5054812;28;20383;-75
2021/04/22 05:18:37;;;;;;;67.25;23.75;;;;;;;7.28;68.80;98304.88;5055475;28;20041;-76
2021/04/22 05:21:03;;;;;;;49.95;21.00;;;;;;;7.34;68.52;98311.13;5065183;28;20029;-75
2021/04/22 05:23:28;;;;;;;44.80;20.33;;;;;;;7.38;68.43;98320.41;5054953;28;20155;-76
2021/04/22 05:25:54;;;;;;;77.05;26.02;;;;;;;7.45;68.50;98321.75;5054906;28;20025;-76
2021/04/22 05:28:21;;;;;;;40.70;18.65;;;;;;;7.51;67.92;98319.00;5055098;28;20060;-76
2021/04/22 05:30:47;;;;;;;30.80;16.85;;;;;;;7.57;68.29;98320.59;5065168;28;20036;-76
2021/04/22 05:33:12;;;;;;;68.75;23.33;;;;;;;7.59;68.31;98332.88;5054915;28;20033;-76
2021/04/22 05:35:38;;;;;;;27.00;16.30;;;;;;;7.62;67.83;98328.75;5054444;28;20104;-76
2021/04/22 05:38:03;;;;;;;55.63;22.77;;;;;;;7.67;68.02;98327.94;5054163;28;20029;-76
2021/04/22 05:40:29;;;;;;;60.38;23.92;;;;;;;7.68;67.93;98341.28;5055524;28;20033;-76
2021/04/22 05:42:55;;;;;;;45.70;19.48;;;;;;;7.66;67.67;98340.75;5054683;28;20037;-76
2021/04/22 05:45:21;;;;;;;36.38;18.77;;;;;;;7.71;67.83;98348.94;5054382;28;20470;-76
2021/04/22 05:47:46;;;;;;;41.88;20.45;;;;;;;7.70;67.72;98360.13;5058810;28;20753;-76
2021/04/22 05:50:13;;;;;;;47.58;19.88;;;;;;;7.70;68.07;98354.69;5073823;28;20111;-76
2021/04/22 05:52:39;;;;;;;44.08;18.15;;;;;;;7.65;67.82;98358.22;5074038;28;20059;-76
2021/04/22 05:55:06;;;;;;;47.63;20.95;;;;;;;7.63;68.06;98362.34;5074352;28;20508;-76
2021/04/22 05:57:31;;;;;;;35.33;16.67;;;;;;;7.62;68.44;98368.91;5068788;28;20039;-76
2021/04/22 05:59:57;;;;;;;32.92;18.17;;;;;;;7.64;68.17;98372.97;5072222;28;20033;-76
2021/04/22 06:02:23;;;;;;;41.28;18.50;;;;;;;7.64;68.79;98385.81;5073783;28;20033;-75
2021/04/22 06:04:48;;;;;;;44.00;19.33;;;;;;;7.59;68.98;98383.91;5071098;28;20469;-75
2021/04/22 06:07:14;;;;;;;38.42;19.83;;;;;;;7.53;69.00;98387.78;5064249;28;20084;-75
2021/04/22 06:09:39;;;;;;;29.92;18.00;;;;;;;7.51;69.13;98389.97;5074121;28;20024;-76
2021/04/22 06:12:06;;;;;;;37.33;18.30;;;;;;;7.43;69.54;98389.44;5069411;28;20427;-75
2021/04/22 06:14:31;;;;;;;34.20;16.65;;;;;;;7.36;69.44;98397.09;5054607;28;20486;-76
2021/04/22 06:16:57;;;;;;;43.47;19.52;;;;;;;7.32;69.60;98398.72;5055525;28;20147;-75
2021/04/22 06:19:22;;;;;;;32.75;17.77;;;;;;;7.31;69.55;98402.53;5054576;28;20035;-74
2021/04/22 06:21:47;;;;;;;42.00;19.40;;;;;;;7.30;70.23;98407.19;5060939;28;20064;-76
2021/04/22 06:24:13;;;;;;;45.20;22.05;;;;;;;7.28;69.83;98411.28;5055704;28;20074;-75
2021/04/22 06:26:38;;;;;;;46.10;20.73;;;;;;;7.27;70.74;98418.66;5073396;28;20461;-76
2021/04/22 06:29:04;;;;;;;30.85;17.42;;;;;;;7.27;70.30;98420.56;5073699;28;20473;-77
2021/04/22 06:31:30;;;;;;;36.97;19.65;;;;;;;7.24;70.41;98429.28;5056875;28;20029;-77
2021/04/22 06:33:55;;;;;;;40.75;20.58;;;;;;;7.22;70.70;98434.19;5053224;28;20091;-76
2021/04/22 06:36:21;;;;;;;29.38;15.60;;;;;;;7.18;70.42;98439.41;5053520;28;20506;-75
2021/04/22 06:38:47;;;;;;;25.30;13.90;;;;;;;7.10;70.16;98440.78;5053284;28;20147;-76
2021/04/22 06:41:13;;;;;;;27.30;14.38;;;;;;;7.00;68.79;98444.31;5056082;28;20054;-76
2021/04/22 06:43:38;;;;;;;24.35;13.05;;;;;;;6.91;68.78;98445.97;5073177;28;20063;-77
2021/04/22 06:46:04;;;;;;;33.83;18.17;;;;;;;6.80;68.39;98452.50;5062996;28;20025;-74
2021/04/22 06:48:29;;;;;;;37.88;21.52;;;;;;;6.75;68.39;98466.13;5052393;28;20040;-75
2021/04/22 06:50:54;;;;;;;14.88;8.88;;;;;;;6.68;67.89;98471.84;5061549;28;20113;-74
2021/04/22 06:53:20;;;;;;;18.17;9.55;;;;;;;6.60;67.14;98472.38;5051807;28;20114;-75
2021/04/22 06:55:45;;;;;;;17.63;8.85;;;;;;;6.58;67.31;98466.38;5051673;28;20036;-76
2021/04/22 06:58:11;;;;;;;36.22;15.32;;;;;;;6.50;67.66;98487.59;5051655;28;20028;-77
2021/04/22 07:00:39;;;;;;;22.17;10.18;;;;;;;6.42;67.40;98496.28;5049819;28;20477;-77
2021/04/22 07:03:05;;;;;;;24.77;12.77;;;;;;;6.32;67.88;98482.63;5052633;28;20021;-76
2021/04/22 07:05:31;;;;;;;22.13;12.80;;;;;;;6.28;67.64;98487.81;5056606;28;20014;-77
2021/04/22 07:07:57;;;;;;;35.60;17.17;;;;;;;6.32;67.98;98475.28;5055267;28;20358;-76
2021/04/22 07:10:23;;;;;;;33.67;16.27;;;;;;;6.38;67.70;98495.19;5059120;28;20028;-75
2021/04/22 07:12:48;;;;;;;17.10;9.27;;;;;;;6.40;68.08;98493.84;5052596;28;20385;-78
2021/04/22 07:15:15;;;;;;;15.27;8.20;;;;;;;6.44;67.77;98504.22;5067192;28;20045;-76
2021/04/22 07:17:40;;;;;;;20.52;8.52;;;;;;;6.44;67.86;98498.75;5071339;28;20389;-76
2021/04/22 07:20:10;;;;;;;16.08;8.82;;;;;;;6.43;67.93;98502.56;5072916;28;20055;-76
2021/04/22 07:22:36;;;;;;;22.80;11.65;;;;;;;6.35;68.09;98507.44;5072659;28;20016;-76
2021/04/22 07:25:02;;;;;;;57.45;26.50;;;;;;;6.27;68.50;98513.41;5054479;28;20036;-75
2021/04/22 07:27:28;;;;;;;24.77;9.90;;;;;;;6.15;69.13;98519.09;5052606;28;20052;-74
2021/04/22 07:29:53;;;;;;;21.23;9.57;;;;;;;6.06;69.22;98531.56;5051546;28;20473;-74
2021/04/22 07:32:20;;;;;;;21.88;10.73;;;;;;;5.98;69.29;98532.84;5052413;28;20048;-75
2021/04/22 07:34:47;;;;;;;14.98;8.20;;;;;;;5.94;69.44;98534.47;5052540;28;20040;-74
2021/04/22 07:37:13;;;;;;;21.08;9.70;;;;;;;5.81;69.17;98535.75;5052535;28;20021;-74
2021/04/22 07:39:40;;;;;;;35.38;15.73;;;;;;;5.72;69.88;98548.22;5052562;28;20393;-74
2021/04/22 07:42:06;;;;;;;31.80;14.52;;;;;;;5.66;70.10;98541.94;5052385;28;20120;-74
2021/04/22 07:44:31;;;;;;;37.95;14.13;;;;;;;5.66;69.58;98558.25;5052371;28;20112;-75
2021/04/22 07:46:57;;;;;;;31.73;13.45;;;;;;;5.55;69.39;98561.97;5052397;28;20032;-76
2021/04/22 07:49:22;;;;;;;26.30;11.98;;;;;;;5.43;69.82;98571.13;5052413;28;20051;-75
2021/04/22 07:51:48;;;;;;;31.98;13.02;;;;;;;5.39;70.78;98580.06;5051827;28;20017;-75
2021/04/22 07:54:13;;;;;;;18.48;10.13;;;;;;;5.31;70.75;98587.63;5052217;28;20029;-75
2021/04/22 07:56:38;;;;;;;22.65;10.75;;;;;;;5.20;70.95;98564.97;5052623;28;20553;-75
2021/04/22 07:59:04;;;;;;;18.80;8.57;;;;;;;5.16;71.44;98568.44;5050774;28;20517;-75
2021/04/22 08:01:30;;;;;;;13.90;7.97;;;;;;;5.07;71.15;98566.22;5052601;28;20521;-75
2021/04/22 08:03:55;;;;;;;16.63;9.13;;;;;;;4.98;71.17;98577.78;5052233;28;20115;-75
2021/04/22 08:06:21;;;;;;;27.38;14.05;;;;;;;4.89;71.80;98580.16;5051500;28;20036;-75
2021/04/22 08:08:47;;;;;;;19.35;11.15;;;;;;;4.87;71.89;98571.44;5052645;28;20496;-75
2021/04/22 08:11:12;;;;;;;35.55;15.52;;;;;;;4.86;71.64;98588.81;5052532;28;20112;-76
2021/04/22 08:13:38;;;;;;;22.95;12.00;;;;;;;4.86;72.70;98595.09;5052848;28;20051;-76
2021/04/22 08:16:04;;;;;;;22.13;11.68;;;;;;;4.88;72.42;98601.09;5052291;28;20037;-73
2021/04/22 08:18:30;;;;;;;24.90;12.07;;;;;;;4.87;72.08;98599.44;5052225;28;20033;-74
2021/04/22 08:20:57;;;;;;;25.10;12.52;;;;;;;4.91;72.55;98605.19;5052454;28;20021;-74
2021/04/22 08:23:31;;;;;;;22.20;12.45;;;;;;;4.99;72.22;98601.16;5051039;28;20091;-74
2021/04/22 08:26:01;;;;;;;32.40;16.38;;;;;;;5.02;72.30;98596.06;5052194;28;20525;-74
2021/04/22 08:28:30;;;;;;;122.32;48.97;;;;;;;5.07;72.77;98593.41;5051580;28;20027;-74
2021/04/22 08:31:09;;;;;;;41.63;19.98;;;;;;;5.15;72.52;98602.16;5051927;28;20033;-74
2021/04/22 08:33:37;;;;;;;59.13;29.60;;;;;;;5.29;72.66;98600.66;5051916;28;20029;-74
2021/04/22 08:36:05;;;;;;;49.92;23.75;;;;;;;5.39;72.07;98610.00;5051845;28;20052;-74
2021/04/22 08:38:31;;;;;;;20.73;9.63;;;;;;;5.46;72.27;98597.81;5051943;28;20079;-75
2021/04/22 08:40:57;;;;;;;24.88;10.30;;;;;;;5.54;72.19;98607.38;5052129;28;20033;-75
2021/04/22 08:43:23;;;;;;;36.92;13.57;;;;;;;5.55;71.34;98613.66;5052022;28;20029;-75
2021/04/22 08:45:49;;;;;;;22.38;8.15;;;;;;;5.53;71.56;98607.66;5051841;28;20035;-78
2021/04/22 08:48:16;;;;;;;18.15;6.90;;;;;;;5.54;71.59;98596.50;5050591;28;20033;-77
2021/04/22 08:50:44;;;;;;;17.33;7.82;;;;;;;5.57;71.64;98603.34;5051492;28;20027;-77
2021/04/22 08:53:20;;;;;;;20.00;7.80;;;;;;;5.64;71.19;98606.66;5051986;28;20385;-78
2021/04/22 08:55:46;;;;;;;25.33;9.95;;;;;;;5.78;70.90;98607.03;5051637;28;20029;-77
2021/04/22 08:58:12;;;;;;;30.63;12.25;;;;;;;5.95;71.16;98613.13;5051415;28;20074;-77
2021/04/22 09:00:50;;;;;;;29.02;11.30;;;;;;;6.01;70.74;98613.22;5051478;28;20113;-77
2021/04/22 09:03:16;;;;;;;22.60;10.48;;;;;;;6.15;70.76;98610.84;5052435;28;20047;-78
2021/04/22 09:05:42;;;;;;;13.50;5.95;;;;;;;6.25;70.30;98619.06;5055312;28;20427;-77
2021/04/22 09:08:08;;;;;;;24.02;9.50;;;;;;;6.28;70.06;98613.09;5055086;28;20021;-78
2021/04/22 09:10:34;;;;;;;21.10;9.38;;;;;;;6.31;69.05;98612.56;5055096;28;20031;-79
2021/04/22 09:13:04;;;;;;;19.17;9.25;;;;;;;6.35;68.15;98610.13;5055086;28;20055;-78
2021/04/22 09:15:32;;;;;;;24.00;11.18;;;;;;;6.39;68.25;98609.34;5054843;28;20122;-77
2021/04/22 09:18:01;;;;;;;19.88;11.80;;;;;;;6.58;68.67;98605.34;5054824;28;20043;-78
2021/04/22 09:20:33;;;;;;;14.55;8.23;;;;;;;6.76;68.37;98604.84;5054882;28;20037;-78
2021/04/22 09:22:58;;;;;;;17.20;7.50;;;;;;;6.83;67.90;98608.16;5054897;28;20445;-78
2021/04/22 09:25:26;;;;;;;15.43;6.97;;;;;;;6.86;67.52;98606.81;5054619;28;20096;-78
2021/04/22 09:28:02;;;;;;;17.17;8.48;;;;;;;6.96;67.42;98606.81;5055459;28;20103;-78
2021/04/22 09:30:34;;;;;;;20.35;8.82;;;;;;;7.13;67.01;98603.84;5047893;28;20045;-77
2021/04/22 09:33:00;;;;;;;15.40;6.93;;;;;;;7.25;66.25;98606.34;5036279;28;20452;-77
2021/04/22 09:35:26;;;;;;;26.58;12.65;;;;;;;7.40;66.92;98605.53;5034691;28;20125;-78
2021/04/22 09:37:53;;;;;;;16.83;8.43;;;;;;;7.58;66.59;98606.09;5034803;28;20026;-78
2021/04/22 09:40:18;;;;;;;17.33;8.77;;;;;;;7.72;65.93;98604.44;5034553;28;20123;-78
2021/04/22 09:42:47;;;;;;;16.27;8.05;;;;;;;7.89;66.35;98606.91;5034370;28;20478;-78
2021/04/22 09:45:16;;;;;;;14.75;7.30;;;;;;;8.03;64.72;98603.59;5034606;28;20049;-77
2021/04/22 09:47:42;;;;;;;18.17;7.57;;;;;;;8.08;62.43;98610.97;5034416;28;20026;-77
2021/04/22 09:50:14;;;;;;;16.42;8.60;;;;;;;8.14;62.64;98613.44;5034099;28;20029;-77
2021/04/22 09:52:51;;;;;;;15.15;8.10;;;;;;;8.31;62.42;98609.53;5034260;28;20030;-77
2021/04/22 09:55:19;;;;;;;13.77;7.15;;;;;;;8.40;62.70;98610.63;5034240;28;20053;-75
2021/04/22 09:57:46;;;;;;;18.10;8.10;;;;;;;8.41;61.13;98606.78;5034278;28;20034;-75
2021/04/22 10:00:21;;;;;;;14.02;6.95;;;;;;;8.37;59.82;98619.38;5034159;28;20029;-76
2021/04/22 10:02:53;;;;;;;13.40;6.55;;;;;;;8.37;59.05;98613.06;5034518;28;20025;-76
2021/04/22 10:05:30;;;;;;;17.67;7.22;;;;;;;8.31;57.21;98615.00;5066038;28;20410;-76
2021/04/22 10:08:06;;;;;;;14.60;6.10;;;;;;;8.14;55.07;98613.44;5034121;28;20033;-76
2021/04/22 10:10:32;;;;;;;20.65;11.00;;;;;;;8.12;55.33;98617.50;5034053;28;20377;-76
2021/04/22 10:13:06;;;;;;;10.80;4.72;;;;;;;8.09;53.04;98613.44;5034173;28;20104;-75
2021/04/22 10:15:32;;;;;;;14.57;5.95;;;;;;;8.09;54.13;98612.59;5032870;28;20122;-75
2021/04/22 10:18:07;;;;;;;11.82;5.03;;;;;;;8.14;54.19;98628.97;5034024;28;20073;-75
2021/04/22 10:20:35;;;;;;;9.30;4.50;;;;;;;8.15;52.92;98616.97;5034206;28;20394;-77
2021/04/22 10:23:02;;;;;;;10.07;3.90;;;;;;;8.03;50.75;98625.47;5034159;28;20034;-74
2021/04/22 10:25:30;;;;;;;11.25;3.70;;;;;;;7.93;51.15;98623.56;5034004;28;20028;-76
2021/04/22 10:28:14;;;;;;;11.32;5.00;;;;;;;7.89;51.40;98626.00;5034028;28;20030;-76
2021/04/22 10:30:45;;;;;;;13.60;5.40;;;;;;;7.86;51.81;98625.75;5034071;28;20032;-77
2021/04/22 10:33:11;;;;;;;10.20;4.50;;;;;;;7.78;52.19;98620.84;5033905;28;20048;-76
2021/04/22 10:35:39;;;;;;;10.63;4.28;;;;;;;7.78;52.38;98615.38;5033859;28;20021;-76
2021/04/22 10:38:05;;;;;;;8.90;3.67;;;;;;;7.79;52.55;98617.81;5033498;28;20474;-76
2021/04/22 10:40:34;;;;;;;12.20;4.55;;;;;;;7.80;51.86;98616.72;5065965;28;20377;-77
2021/04/22 10:43:03;;;;;;;11.45;5.63;;;;;;;7.74;50.05;98623.31;5033613;28;20593;-76
2021/04/22 10:45:31;;;;;;;15.68;6.85;;;;;;;7.72;50.00;98620.03;5033293;28;20075;-76
2021/04/22 10:47:57;;;;;;;16.00;5.72;;;;;;;7.78;50.94;98615.38;5032837;28;20528;-76
2021/04/22 10:50:31;;;;;;;53.10;17.92;;;;;;;7.80;50.23;98624.91;5033208;28;20021;-77
2021/04/22 10:52:58;;;;;;;15.18;5.57;;;;;;;7.85;49.81;98614.00;5033568;28;20033;-76
2021/04/22 10:55:29;;;;;;;12.95;4.93;;;;;;;7.92;50.33;98601.97;5033254;28;20100;-76
2021/04/22 10:57:58;;;;;;;9.45;4.07;;;;;;;8.03;50.36;98600.88;5033222;28;20490;-76
2021/04/22 11:00:27;;;;;;;10.18;4.00;;;;;;;8.11;48.93;98596.75;5033269;28;20024;-77
2021/04/22 11:02:55;;;;;;;11.40;3.90;;;;;;;8.25;50.33;98589.63;5033413;28;20025;-76
2021/04/22 11:05:30;;;;;;;11.35;3.50;;;;;;;8.49;49.47;98603.53;5033286;28;20539;-76
2021/04/22 11:08:06;;;;;;;14.90;5.07;;;;;;;8.61;44.59;98588.69;5033342;28;20051;-77
2021/04/22 11:10:37;;;;;;;12.25;4.70;;;;;;;8.66;44.53;98598.81;5033163;28;20462;-76
2021/04/22 11:13:18;;;;;;;14.43;4.43;;;;;;;8.75;44.01;98591.66;5033170;28;20030;-76
2021/04/22 11:15:52;;;;;;;10.63;3.38;;;;;;;8.90;43.26;98588.03;5033038;28;20041;-76
2021/04/22 11:18:18;;;;;;;13.25;4.88;;;;;;;8.96;43.64;98595.09;5033072;28;20494;-74
2021/04/22 11:20:44;;;;;;;13.02;4.85;;;;;;;8.90;43.48;98591.56;5033033;28;20030;-74
2021/04/22 11:23:19;;;;;;;11.02;3.65;;;;;;;8.96;44.41;98589.63;5033035;28;20029;-74
2021/04/22 11:25:52;;;;;;;9.82;3.45;;;;;;;9.10;44.36;98592.56;5033052;28;20025;-74